sensor_id;sensor_type;location;lat;lon;timestamp;P1;durP1;ratioP1;P2;durP2;ratioP2
2458;SDS011;1241;50.920;6.936;2022-11-20T00:00:48;19.33;;;15.50;;
2458;SDS011;1241;50.920;6.936;2022-11-20T00:03:14;19.48;;;13.13;;
2458;SDS011;1241;50.920;6.936;2022-11-20T00:05:40;21.17;;;15.07;;
2458;SDS011;1241;50.920;6.936;2022-11-20T00:08:06;20.13;;;13.77;;
2458;SDS011;1241;50.920;6.936;2022-11-20T00:10:31;20.80;;;14.40;;
2458;SDS011;1241;50.920;6.936;2022-11-20T00:12:57;22.07;;;15.33;;
2458;SDS011;1241;50.920;6.936;2022-11-20T00:15:23;18.05;;;14.13;;
2458;SDS011;1241;50.920;6.936;2022-11-20T00:17:49;20.10;;;15.77;;
2458;SDS011;1241;50.920;6.936;2022-11-20T00:20:15;23.67;;;15.67;;
2458;SDS011;1241;50.920;6.936;2022-11-20T00:22:41;22.13;;;14.87;;
2458;SDS011;1241;50.920;6.936;2022-11-20T00:25:07;25.70;;;15.17;;
2458;SDS011;1241;50.920;6.936;2022-11-20T00:27:32;19.60;;;15.23;;
2458;SDS011;1241;50.920;6.936;2022-11-20T00:29:58;25.00;;;16.30;;
2458;SDS011;1241;50.920;6.936;2022-11-20T00:32:24;19.77;;;15.30;;
2458;SDS011;1241;50.920;6.936;2022-11-20T00:34:50;19.73;;;14.90;;
2458;SDS011;1241;50.920;6.936;2022-11-20T00:37:15;20.57;;;15.83;;
2458;SDS011;1241;50.920;6.936;2022-11-20T00:39:41;20.40;;;13.33;;
2458;SDS011;1241;50.920;6.936;2022-11-20T00:42:07;21.53;;;14.37;;
2458;SDS011;1241;50.920;6.936;2022-11-20T00:44:32;15.17;;;13.57;;
2458;SDS011;1241;50.920;6.936;2022-11-20T00:46:58;20.40;;;15.57;;
2458;SDS011;1241;50.920;6.936;2022-11-20T00:49:24;23.80;;;16.17;;
2458;SDS011;1241;50.920;6.936;2022-11-20T00:51:49;21.77;;;15.70;;
2458;SDS011;1241;50.920;6.936;2022-11-20T00:54:15;22.10;;;14.53;;
2458;SDS011;1241;50.920;6.936;2022-11-20T00:56:41;18.87;;;13.20;;
2458;SDS011;1241;50.920;6.936;2022-11-20T00:59:08;20.30;;;14.40;;
2458;SDS011;1241;50.920;6.936;2022-11-20T01:01:34;19.10;;;13.88;;
2458;SDS011;1241;50.920;6.936;2022-11-20T01:04:01;21.15;;;14.75;;
2458;SDS011;1241;50.920;6.936;2022-11-20T01:06:28;19.92;;;13.60;;
2458;SDS011;1241;50.920;6.936;2022-11-20T01:08:57;20.70;;;14.25;;
2458;SDS011;1241;50.920;6.936;2022-11-20T01:11:34;20.58;;;13.38;;
2458;SDS011;1241;50.920;6.936;2022-11-20T01:14:02;18.98;;;13.82;;
2458;SDS011;1241;50.920;6.936;2022-11-20T01:16:31;20.80;;;14.60;;
2458;SDS011;1241;50.920;6.936;2022-11-20T01:18:59;23.88;;;15.93;;
2458;SDS011;1241;50.920;6.936;2022-11-20T01:21:27;18.60;;;14.60;;
2458;SDS011;1241;50.920;6.936;2022-11-20T01:23:54;19.80;;;14.48;;
2458;SDS011;1241;50.920;6.936;2022-11-20T01:26:22;17.23;;;13.55;;
2458;SDS011;1241;50.920;6.936;2022-11-20T01:28:53;17.73;;;14.05;;
2458;SDS011;1241;50.920;6.936;2022-11-20T01:31:23;21.55;;;13.38;;
2458;SDS011;1241;50.920;6.936;2022-11-20T01:33:51;25.17;;;15.25;;
2458;SDS011;1241;50.920;6.936;2022-11-20T01:36:19;19.85;;;13.45;;
2458;SDS011;1241;50.920;6.936;2022-11-20T01:38:46;19.10;;;13.65;;
2458;SDS011;1241;50.920;6.936;2022-11-20T01:41:13;20.07;;;14.23;;
2458;SDS011;1241;50.920;6.936;2022-11-20T01:44:00;21.92;;;14.23;;
2458;SDS011;1241;50.920;6.936;2022-11-20T01:46:26;21.92;;;14.65;;
2458;SDS011;1241;50.920;6.936;2022-11-20T01:48:54;20.35;;;14.02;;
2458;SDS011;1241;50.920;6.936;2022-11-20T01:51:42;20.75;;;15.45;;
2458;SDS011;1241;50.920;6.936;2022-11-20T01:54:15;17.92;;;12.48;;
2458;SDS011;1241;50.920;6.936;2022-11-20T01:56:47;18.90;;;15.00;;
2458;SDS011;1241;50.920;6.936;2022-11-20T01:59:16;16.73;;;13.35;;
2458;SDS011;1241;50.920;6.936;2022-11-20T02:01:44;20.52;;;14.65;;
2458;SDS011;1241;50.920;6.936;2022-11-20T02:04:10;18.42;;;13.13;;
2458;SDS011;1241;50.920;6.936;2022-11-20T02:09:13;19.85;;;14.60;;
2458;SDS011;1241;50.920;6.936;2022-11-20T02:11:40;18.63;;;12.95;;
2458;SDS011;1241;50.920;6.936;2022-11-20T02:14:05;19.47;;;13.90;;
2458;SDS011;1241;50.920;6.936;2022-11-20T02:16:37;20.65;;;14.60;;
2458;SDS011;1241;50.920;6.936;2022-11-20T02:19:06;22.13;;;14.70;;
2458;SDS011;1241;50.920;6.936;2022-11-20T02:21:48;19.80;;;14.05;;
2458;SDS011;1241;50.920;6.936;2022-11-20T02:24:27;18.90;;;15.02;;
2458;SDS011;1241;50.920;6.936;2022-11-20T02:27:00;18.30;;;15.23;;
2458;SDS011;1241;50.920;6.936;2022-11-20T02:29:34;17.42;;;14.27;;
2458;SDS011;1241;50.920;6.936;2022-11-20T02:34:48;19.87;;;14.50;;
2458;SDS011;1241;50.920;6.936;2022-11-20T02:37:14;18.47;;;13.33;;
2458;SDS011;1241;50.920;6.936;2022-11-20T02:39:40;19.35;;;14.60;;
2458;SDS011;1241;50.920;6.936;2022-11-20T02:42:07;19.67;;;13.38;;
2458;SDS011;1241;50.920;6.936;2022-11-20T02:44:33;20.83;;;13.97;;
2458;SDS011;1241;50.920;6.936;2022-11-20T02:46:58;16.57;;;12.90;;
2458;SDS011;1241;50.920;6.936;2022-11-20T02:49:24;18.17;;;14.07;;
2458;SDS011;1241;50.920;6.936;2022-11-20T02:51:50;20.13;;;14.25;;
2458;SDS011;1241;50.920;6.936;2022-11-20T02:54:17;20.35;;;14.77;;
2458;SDS011;1241;50.920;6.936;2022-11-20T02:56:42;21.38;;;14.70;;
2458;SDS011;1241;50.920;6.936;2022-11-20T02:59:08;16.97;;;13.23;;
2458;SDS011;1241;50.920;6.936;2022-11-20T03:01:35;20.60;;;14.35;;
2458;SDS011;1241;50.920;6.936;2022-11-20T03:04:01;18.05;;;14.50;;
2458;SDS011;1241;50.920;6.936;2022-11-20T03:06:27;17.55;;;13.13;;
2458;SDS011;1241;50.920;6.936;2022-11-20T03:08:53;18.67;;;14.38;;
2458;SDS011;1241;50.920;6.936;2022-11-20T03:11:19;20.23;;;14.48;;
2458;SDS011;1241;50.920;6.936;2022-11-20T03:13:45;20.95;;;14.80;;
2458;SDS011;1241;50.920;6.936;2022-11-20T03:16:12;20.77;;;13.80;;
2458;SDS011;1241;50.920;6.936;2022-11-20T03:18:40;19.35;;;13.40;;
2458;SDS011;1241;50.920;6.936;2022-11-20T03:21:07;18.33;;;14.05;;
2458;SDS011;1241;50.920;6.936;2022-11-20T03:23:33;18.55;;;14.85;;
2458;SDS011;1241;50.920;6.936;2022-11-20T03:26:22;25.00;;;16.83;;
2458;SDS011;1241;50.920;6.936;2022-11-20T03:28:50;20.05;;;14.98;;
2458;SDS011;1241;50.920;6.936;2022-11-20T03:31:21;20.27;;;14.70;;
2458;SDS011;1241;50.920;6.936;2022-11-20T03:33:49;20.75;;;14.73;;
2458;SDS011;1241;50.920;6.936;2022-11-20T03:36:15;19.70;;;14.33;;
2458;SDS011;1241;50.920;6.936;2022-11-20T03:38:42;18.20;;;13.15;;
2458;SDS011;1241;50.920;6.936;2022-11-20T03:41:24;18.48;;;14.90;;
2458;SDS011;1241;50.920;6.936;2022-11-20T03:43:56;20.10;;;14.50;;
2458;SDS011;1241;50.920;6.936;2022-11-20T03:46:26;20.73;;;15.35;;
2458;SDS011;1241;50.920;6.936;2022-11-20T03:48:52;21.15;;;15.82;;
2458;SDS011;1241;50.920;6.936;2022-11-20T03:51:20;22.33;;;16.13;;
2458;SDS011;1241;50.920;6.936;2022-11-20T03:53:47;23.65;;;16.08;;
2458;SDS011;1241;50.920;6.936;2022-11-20T03:56:15;23.50;;;15.00;;
2458;SDS011;1241;50.920;6.936;2022-11-20T03:58:42;18.33;;;13.85;;
2458;SDS011;1241;50.920;6.936;2022-11-20T04:01:09;23.40;;;14.20;;
2458;SDS011;1241;50.920;6.936;2022-11-20T04:03:37;18.25;;;12.63;;
2458;SDS011;1241;50.920;6.936;2022-11-20T04:06:20;20.92;;;15.10;;
2458;SDS011;1241;50.920;6.936;2022-11-20T04:08:47;21.08;;;13.80;;
2458;SDS011;1241;50.920;6.936;2022-11-20T04:11:20;18.20;;;12.93;;
2458;SDS011;1241;50.920;6.936;2022-11-20T04:13:50;19.65;;;14.60;;
2458;SDS011;1241;50.920;6.936;2022-11-20T04:16:17;20.63;;;15.70;;
2458;SDS011;1241;50.920;6.936;2022-11-20T04:18:43;23.85;;;16.00;;
2458;SDS011;1241;50.920;6.936;2022-11-20T04:21:09;24.40;;;14.55;;
2458;SDS011;1241;50.920;6.936;2022-11-20T04:23:36;22.52;;;16.65;;
2458;SDS011;1241;50.920;6.936;2022-11-20T04:26:06;21.30;;;15.30;;
2458;SDS011;1241;50.920;6.936;2022-11-20T04:28:36;20.60;;;15.93;;
2458;SDS011;1241;50.920;6.936;2022-11-20T04:31:06;19.10;;;15.95;;
2458;SDS011;1241;50.920;6.936;2022-11-20T04:33:32;23.58;;;15.52;;
2458;SDS011;1241;50.920;6.936;2022-11-20T04:36:02;20.70;;;14.88;;
2458;SDS011;1241;50.920;6.936;2022-11-20T04:38:35;25.63;;;15.70;;
2458;SDS011;1241;50.920;6.936;2022-11-20T04:41:01;23.17;;;14.73;;
2458;SDS011;1241;50.920;6.936;2022-11-20T04:43:29;22.65;;;14.15;;
2458;SDS011;1241;50.920;6.936;2022-11-20T04:45:56;21.55;;;14.70;;
2458;SDS011;1241;50.920;6.936;2022-11-20T04:48:22;20.00;;;15.30;;
2458;SDS011;1241;50.920;6.936;2022-11-20T04:50:49;24.50;;;17.30;;
2458;SDS011;1241;50.920;6.936;2022-11-20T04:53:15;23.98;;;16.40;;
2458;SDS011;1241;50.920;6.936;2022-11-20T04:55:41;26.15;;;18.17;;
2458;SDS011;1241;50.920;6.936;2022-11-20T04:58:07;25.20;;;17.33;;
2458;SDS011;1241;50.920;6.936;2022-11-20T05:00:33;27.70;;;18.33;;
2458;SDS011;1241;50.920;6.936;2022-11-20T05:02:59;27.03;;;17.77;;
2458;SDS011;1241;50.920;6.936;2022-11-20T05:05:24;23.07;;;17.43;;
2458;SDS011;1241;50.920;6.936;2022-11-20T05:07:50;24.70;;;18.30;;
2458;SDS011;1241;50.920;6.936;2022-11-20T05:10:16;26.87;;;18.03;;
2458;SDS011;1241;50.920;6.936;2022-11-20T05:12:41;22.87;;;16.60;;
2458;SDS011;1241;50.920;6.936;2022-11-20T05:15:07;28.10;;;17.90;;
2458;SDS011;1241;50.920;6.936;2022-11-20T05:17:33;27.65;;;18.77;;
2458;SDS011;1241;50.920;6.936;2022-11-20T05:19:59;31.43;;;17.63;;
2458;SDS011;1241;50.920;6.936;2022-11-20T05:22:25;26.13;;;18.23;;
2458;SDS011;1241;50.920;6.936;2022-11-20T05:24:50;31.30;;;20.40;;
2458;SDS011;1241;50.920;6.936;2022-11-20T05:27:16;30.03;;;19.23;;
2458;SDS011;1241;50.920;6.936;2022-11-20T05:29:42;24.90;;;17.63;;
2458;SDS011;1241;50.920;6.936;2022-11-20T05:32:07;29.57;;;18.33;;
2458;SDS011;1241;50.920;6.936;2022-11-20T05:34:35;29.48;;;20.17;;
2458;SDS011;1241;50.920;6.936;2022-11-20T05:37:01;30.17;;;18.77;;
2458;SDS011;1241;50.920;6.936;2022-11-20T05:39:28;26.05;;;18.33;;
2458;SDS011;1241;50.920;6.936;2022-11-20T05:41:53;29.50;;;19.50;;
2458;SDS011;1241;50.920;6.936;2022-11-20T05:44:37;26.10;;;18.02;;
2458;SDS011;1241;50.920;6.936;2022-11-20T05:47:04;27.50;;;17.13;;
2458;SDS011;1241;50.920;6.936;2022-11-20T05:49:30;26.42;;;17.08;;
2458;SDS011;1241;50.920;6.936;2022-11-20T05:51:56;25.93;;;16.13;;
2458;SDS011;1241;50.920;6.936;2022-11-20T05:54:22;26.40;;;16.30;;
2458;SDS011;1241;50.920;6.936;2022-11-20T05:56:47;21.33;;;16.40;;
2458;SDS011;1241;50.920;6.936;2022-11-20T05:59:13;25.87;;;17.27;;
2458;SDS011;1241;50.920;6.936;2022-11-20T06:01:39;23.57;;;17.37;;
2458;SDS011;1241;50.920;6.936;2022-11-20T06:04:04;28.17;;;17.63;;
2458;SDS011;1241;50.920;6.936;2022-11-20T06:06:30;25.37;;;17.23;;
2458;SDS011;1241;50.920;6.936;2022-11-20T06:08:56;24.50;;;16.10;;
2458;SDS011;1241;50.920;6.936;2022-11-20T06:11:23;26.27;;;17.67;;
2458;SDS011;1241;50.920;6.936;2022-11-20T06:13:50;25.70;;;17.23;;
2458;SDS011;1241;50.920;6.936;2022-11-20T06:16:17;24.30;;;16.80;;
2458;SDS011;1241;50.920;6.936;2022-11-20T06:18:44;27.55;;;17.85;;
2458;SDS011;1241;50.920;6.936;2022-11-20T06:21:11;33.33;;;20.95;;
2458;SDS011;1241;50.920;6.936;2022-11-20T06:23:39;29.92;;;18.63;;
2458;SDS011;1241;50.920;6.936;2022-11-20T06:26:09;27.20;;;19.38;;
2458;SDS011;1241;50.920;6.936;2022-11-20T06:28:37;25.65;;;17.40;;
2458;SDS011;1241;50.920;6.936;2022-11-20T06:31:03;31.63;;;20.17;;
2458;SDS011;1241;50.920;6.936;2022-11-20T06:33:29;30.55;;;19.33;;
2458;SDS011;1241;50.920;6.936;2022-11-20T06:35:58;27.67;;;19.43;;
2458;SDS011;1241;50.920;6.936;2022-11-20T06:38:25;34.63;;;19.75;;
2458;SDS011;1241;50.920;6.936;2022-11-20T06:40:52;33.47;;;18.15;;
2458;SDS011;1241;50.920;6.936;2022-11-20T06:43:18;30.58;;;20.10;;
2458;SDS011;1241;50.920;6.936;2022-11-20T06:45:44;28.33;;;20.63;;
2458;SDS011;1241;50.920;6.936;2022-11-20T06:48:09;28.90;;;18.67;;
2458;SDS011;1241;50.920;6.936;2022-11-20T06:50:38;25.70;;;19.87;;
2458;SDS011;1241;50.920;6.936;2022-11-20T06:53:04;25.52;;;16.83;;
2458;SDS011;1241;50.920;6.936;2022-11-20T06:55:30;29.00;;;18.27;;
2458;SDS011;1241;50.920;6.936;2022-11-20T06:57:57;25.95;;;18.15;;
2458;SDS011;1241;50.920;6.936;2022-11-20T07:00:23;25.20;;;16.70;;
2458;SDS011;1241;50.920;6.936;2022-11-20T07:02:49;22.58;;;15.88;;
2458;SDS011;1241;50.920;6.936;2022-11-20T07:05:15;21.50;;;16.33;;
2458;SDS011;1241;50.920;6.936;2022-11-20T07:07:41;25.40;;;17.05;;
2458;SDS011;1241;50.920;6.936;2022-11-20T07:10:07;24.75;;;17.23;;
2458;SDS011;1241;50.920;6.936;2022-11-20T07:12:33;19.15;;;13.70;;
2458;SDS011;1241;50.920;6.936;2022-11-20T07:14:59;21.37;;;15.00;;
2458;SDS011;1241;50.920;6.936;2022-11-20T07:17:24;25.83;;;18.10;;
2458;SDS011;1241;50.920;6.936;2022-11-20T07:19:50;19.27;;;14.90;;
2458;SDS011;1241;50.920;6.936;2022-11-20T07:22:16;19.93;;;15.33;;
2458;SDS011;1241;50.920;6.936;2022-11-20T07:24:41;22.40;;;16.40;;
2458;SDS011;1241;50.920;6.936;2022-11-20T07:27:07;25.50;;;16.10;;
2458;SDS011;1241;50.920;6.936;2022-11-20T07:29:33;23.60;;;16.50;;
2458;SDS011;1241;50.920;6.936;2022-11-20T07:31:58;20.37;;;15.30;;
2458;SDS011;1241;50.920;6.936;2022-11-20T07:34:24;21.67;;;16.73;;
2458;SDS011;1241;50.920;6.936;2022-11-20T07:36:50;24.70;;;16.80;;
2458;SDS011;1241;50.920;6.936;2022-11-20T07:39:15;25.23;;;16.90;;
2458;SDS011;1241;50.920;6.936;2022-11-20T07:41:41;21.37;;;16.23;;
2458;SDS011;1241;50.920;6.936;2022-11-20T07:44:07;22.27;;;15.40;;
2458;SDS011;1241;50.920;6.936;2022-11-20T07:46:32;23.27;;;16.67;;
2458;SDS011;1241;50.920;6.936;2022-11-20T07:48:58;25.00;;;15.00;;
2458;SDS011;1241;50.920;6.936;2022-11-20T07:51:24;22.50;;;15.63;;
2458;SDS011;1241;50.920;6.936;2022-11-20T07:53:51;22.92;;;16.52;;
2458;SDS011;1241;50.920;6.936;2022-11-20T07:56:17;23.92;;;16.45;;
2458;SDS011;1241;50.920;6.936;2022-11-20T07:58:43;21.20;;;15.73;;
2458;SDS011;1241;50.920;6.936;2022-11-20T08:01:08;21.27;;;15.10;;
2458;SDS011;1241;50.920;6.936;2022-11-20T08:03:34;23.57;;;17.43;;
2458;SDS011;1241;50.920;6.936;2022-11-20T08:06:02;21.92;;;14.93;;
2458;SDS011;1241;50.920;6.936;2022-11-20T08:08:28;21.20;;;15.47;;
2458;SDS011;1241;50.920;6.936;2022-11-20T08:10:56;20.27;;;15.90;;
2458;SDS011;1241;50.920;6.936;2022-11-20T08:13:42;21.50;;;15.55;;
2458;SDS011;1241;50.920;6.936;2022-11-20T08:16:27;22.08;;;15.73;;
2458;SDS011;1241;50.920;6.936;2022-11-20T08:18:53;26.97;;;17.87;;
2458;SDS011;1241;50.920;6.936;2022-11-20T08:21:19;22.08;;;15.88;;
2458;SDS011;1241;50.920;6.936;2022-11-20T08:23:45;26.07;;;17.10;;
2458;SDS011;1241;50.920;6.936;2022-11-20T08:26:11;28.40;;;19.30;;
2458;SDS011;1241;50.920;6.936;2022-11-20T08:28:36;23.33;;;15.50;;
2458;SDS011;1241;50.920;6.936;2022-11-20T08:31:02;27.57;;;17.40;;
2458;SDS011;1241;50.920;6.936;2022-11-20T08:33:29;28.60;;;18.92;;
2458;SDS011;1241;50.920;6.936;2022-11-20T08:36:02;28.38;;;19.20;;
2458;SDS011;1241;50.920;6.936;2022-11-20T08:38:29;22.98;;;17.20;;
2458;SDS011;1241;50.920;6.936;2022-11-20T08:40:58;22.50;;;16.73;;
2458;SDS011;1241;50.920;6.936;2022-11-20T08:43:44;27.35;;;18.77;;
2458;SDS011;1241;50.920;6.936;2022-11-20T08:46:10;28.13;;;18.40;;
2458;SDS011;1241;50.920;6.936;2022-11-20T08:48:35;26.77;;;19.77;;
2458;SDS011;1241;50.920;6.936;2022-11-20T08:51:01;23.27;;;16.87;;
2458;SDS011;1241;50.920;6.936;2022-11-20T08:53:27;25.03;;;18.13;;
2458;SDS011;1241;50.920;6.936;2022-11-20T08:55:53;25.27;;;18.60;;
2458;SDS011;1241;50.920;6.936;2022-11-20T08:58:19;26.30;;;18.27;;
2458;SDS011;1241;50.920;6.936;2022-11-20T09:00:44;27.50;;;17.83;;
2458;SDS011;1241;50.920;6.936;2022-11-20T09:03:10;26.13;;;18.27;;
2458;SDS011;1241;50.920;6.936;2022-11-20T09:05:38;25.20;;;17.90;;
2458;SDS011;1241;50.920;6.936;2022-11-20T09:08:04;25.20;;;17.60;;
2458;SDS011;1241;50.920;6.936;2022-11-20T09:10:30;20.30;;;16.40;;
2458;SDS011;1241;50.920;6.936;2022-11-20T09:12:56;24.85;;;16.17;;
2458;SDS011;1241;50.920;6.936;2022-11-20T09:15:22;23.55;;;16.00;;
2458;SDS011;1241;50.920;6.936;2022-11-20T09:17:52;24.00;;;17.48;;
2458;SDS011;1241;50.920;6.936;2022-11-20T09:20:19;21.23;;;16.10;;
2458;SDS011;1241;50.920;6.936;2022-11-20T09:22:45;23.17;;;16.52;;
2458;SDS011;1241;50.920;6.936;2022-11-20T09:25:11;25.60;;;17.17;;
2458;SDS011;1241;50.920;6.936;2022-11-20T09:27:36;25.40;;;18.90;;
2458;SDS011;1241;50.920;6.936;2022-11-20T09:30:02;25.23;;;17.60;;
2458;SDS011;1241;50.920;6.936;2022-11-20T09:32:29;26.85;;;18.13;;
2458;SDS011;1241;50.920;6.936;2022-11-20T09:34:54;25.23;;;17.10;;
2458;SDS011;1241;50.920;6.936;2022-11-20T09:37:20;26.50;;;17.00;;
2458;SDS011;1241;50.920;6.936;2022-11-20T09:39:46;26.53;;;18.03;;
2458;SDS011;1241;50.920;6.936;2022-11-20T09:42:18;25.80;;;17.23;;
2458;SDS011;1241;50.920;6.936;2022-11-20T09:44:54;52.22;;;31.58;;
2458;SDS011;1241;50.920;6.936;2022-11-20T09:55:33;25.52;;;17.98;;
2458;SDS011;1241;50.920;6.936;2022-11-20T09:58:00;22.40;;;16.65;;
2458;SDS011;1241;50.920;6.936;2022-11-20T10:00:27;24.67;;;16.90;;
2458;SDS011;1241;50.920;6.936;2022-11-20T10:05:45;24.60;;;17.88;;
2458;SDS011;1241;50.920;6.936;2022-11-20T10:08:22;25.98;;;17.13;;
2458;SDS011;1241;50.920;6.936;2022-11-20T10:10:50;27.80;;;17.58;;
2458;SDS011;1241;50.920;6.936;2022-11-20T10:16:30;24.02;;;16.92;;
2458;SDS011;1241;50.920;6.936;2022-11-20T10:29:41;27.63;;;18.08;;
2458;SDS011;1241;50.920;6.936;2022-11-20T10:32:14;29.75;;;19.40;;
2458;SDS011;1241;50.920;6.936;2022-11-20T10:34:54;26.50;;;20.20;;
2458;SDS011;1241;50.920;6.936;2022-11-20T10:37:26;28.08;;;19.75;;
2458;SDS011;1241;50.920;6.936;2022-11-20T10:40:54;26.83;;;18.60;;
2458;SDS011;1241;50.920;6.936;2022-11-20T10:43:03;27.10;;;19.80;;
2458;SDS011;1241;50.920;6.936;2022-11-20T10:48:29;31.42;;;20.23;;
2458;SDS011;1241;50.920;6.936;2022-11-20T10:57:03;29.48;;;19.42;;
2458;SDS011;1241;50.920;6.936;2022-11-20T11:00:00;28.77;;;19.52;;
2458;SDS011;1241;50.920;6.936;2022-11-20T11:02:34;29.80;;;20.15;;
2458;SDS011;1241;50.920;6.936;2022-11-20T11:08:14;27.88;;;17.77;;
2458;SDS011;1241;50.920;6.936;2022-11-20T11:10:51;33.63;;;20.55;;
2458;SDS011;1241;50.920;6.936;2022-11-20T11:13:26;29.65;;;18.77;;
2458;SDS011;1241;50.920;6.936;2022-11-20T11:15:54;30.10;;;19.52;;
2458;SDS011;1241;50.920;6.936;2022-11-20T11:20:57;27.67;;;19.08;;
2458;SDS011;1241;50.920;6.936;2022-11-20T11:23:32;25.85;;;18.10;;
2458;SDS011;1241;50.920;6.936;2022-11-20T11:26:03;27.65;;;18.13;;
2458;SDS011;1241;50.920;6.936;2022-11-20T11:28:31;28.00;;;18.30;;
2458;SDS011;1241;50.920;6.936;2022-11-20T11:30:57;32.20;;;19.90;;
2458;SDS011;1241;50.920;6.936;2022-11-20T11:33:27;32.40;;;19.55;;
2458;SDS011;1241;50.920;6.936;2022-11-20T11:38:38;27.48;;;18.80;;
2458;SDS011;1241;50.920;6.936;2022-11-20T11:41:19;27.88;;;17.60;;
2458;SDS011;1241;50.920;6.936;2022-11-20T11:43:52;29.77;;;20.63;;
2458;SDS011;1241;50.920;6.936;2022-11-20T11:46:39;28.80;;;18.52;;
2458;SDS011;1241;50.920;6.936;2022-11-20T11:49:18;30.83;;;18.77;;
2458;SDS011;1241;50.920;6.936;2022-11-20T11:51:56;25.58;;;18.85;;
2458;SDS011;1241;50.920;6.936;2022-11-20T11:54:24;31.80;;;19.25;;
2458;SDS011;1241;50.920;6.936;2022-11-20T11:56:53;26.05;;;17.98;;
2458;SDS011;1241;50.920;6.936;2022-11-20T11:59:24;30.13;;;19.58;;
2458;SDS011;1241;50.920;6.936;2022-11-20T12:01:57;26.92;;;19.05;;
2458;SDS011;1241;50.920;6.936;2022-11-20T12:04:42;28.75;;;19.95;;
2458;SDS011;1241;50.920;6.936;2022-11-20T12:07:13;30.92;;;18.63;;
2458;SDS011;1241;50.920;6.936;2022-11-20T12:09:47;25.75;;;18.83;;
2458;SDS011;1241;50.920;6.936;2022-11-20T12:12:20;28.70;;;19.30;;
2458;SDS011;1241;50.920;6.936;2022-11-20T12:15:01;25.63;;;18.77;;
2458;SDS011;1241;50.920;6.936;2022-11-20T12:17:29;26.75;;;19.88;;
2458;SDS011;1241;50.920;6.936;2022-11-20T12:19:55;31.00;;;18.60;;
2458;SDS011;1241;50.920;6.936;2022-11-20T12:25:20;24.85;;;16.90;;
2458;SDS011;1241;50.920;6.936;2022-11-20T12:28:02;28.55;;;19.42;;
2458;SDS011;1241;50.920;6.936;2022-11-20T12:30:41;27.52;;;18.52;;
2458;SDS011;1241;50.920;6.936;2022-11-20T12:38:51;26.70;;;17.98;;
2458;SDS011;1241;50.920;6.936;2022-11-20T12:41:51;26.73;;;18.45;;
2458;SDS011;1241;50.920;6.936;2022-11-20T12:53:27;27.35;;;17.83;;
2458;SDS011;1241;50.920;6.936;2022-11-20T13:07:02;24.80;;;18.83;;
2458;SDS011;1241;50.920;6.936;2022-11-20T13:09:32;26.98;;;16.35;;
2458;SDS011;1241;50.920;6.936;2022-11-20T13:14:52;26.02;;;18.73;;
2458;SDS011;1241;50.920;6.936;2022-11-20T13:19:58;26.13;;;17.98;;
2458;SDS011;1241;50.920;6.936;2022-11-20T13:22:28;23.55;;;17.45;;
2458;SDS011;1241;50.920;6.936;2022-11-20T13:25:10;25.65;;;17.10;;
2458;SDS011;1241;50.920;6.936;2022-11-20T13:27:48;26.80;;;18.83;;
2458;SDS011;1241;50.920;6.936;2022-11-20T13:30:16;24.95;;;17.58;;
2458;SDS011;1241;50.920;6.936;2022-11-20T13:33:04;26.65;;;17.85;;
2458;SDS011;1241;50.920;6.936;2022-11-20T13:36:00;24.40;;;17.05;;
2458;SDS011;1241;50.920;6.936;2022-11-20T13:38:42;30.83;;;18.25;;
2458;SDS011;1241;50.920;6.936;2022-11-20T13:41:22;24.98;;;17.45;;
2458;SDS011;1241;50.920;6.936;2022-11-20T13:44:14;23.27;;;18.60;;
2458;SDS011;1241;50.920;6.936;2022-11-20T13:46:48;25.38;;;18.48;;
2458;SDS011;1241;50.920;6.936;2022-11-20T13:49:26;28.13;;;18.60;;
2458;SDS011;1241;50.920;6.936;2022-11-20T13:54:43;25.10;;;16.27;;
2458;SDS011;1241;50.920;6.936;2022-11-20T14:00:24;26.48;;;17.90;;
2458;SDS011;1241;50.920;6.936;2022-11-20T14:02:58;28.50;;;16.98;;
2458;SDS011;1241;50.920;6.936;2022-11-20T14:05:31;31.05;;;19.15;;
2458;SDS011;1241;50.920;6.936;2022-11-20T14:08:02;23.65;;;16.27;;
2458;SDS011;1241;50.920;6.936;2022-11-20T14:10:30;26.42;;;18.35;;
2458;SDS011;1241;50.920;6.936;2022-11-20T14:12:56;27.27;;;17.73;;
2458;SDS011;1241;50.920;6.936;2022-11-20T14:15:32;27.20;;;17.00;;
2458;SDS011;1241;50.920;6.936;2022-11-20T14:17:59;23.27;;;16.25;;
2458;SDS011;1241;50.920;6.936;2022-11-20T14:20:36;25.65;;;18.42;;
2458;SDS011;1241;50.920;6.936;2022-11-20T14:23:03;28.30;;;18.10;;
2458;SDS011;1241;50.920;6.936;2022-11-20T14:25:30;22.10;;;15.40;;
2458;SDS011;1241;50.920;6.936;2022-11-20T14:27:57;27.42;;;19.02;;
2458;SDS011;1241;50.920;6.936;2022-11-20T14:30:26;28.50;;;18.00;;
2458;SDS011;1241;50.920;6.936;2022-11-20T14:33:04;27.38;;;19.23;;
2458;SDS011;1241;50.920;6.936;2022-11-20T14:35:31;24.67;;;18.35;;
2458;SDS011;1241;50.920;6.936;2022-11-20T14:38:02;25.65;;;18.35;;
2458;SDS011;1241;50.920;6.936;2022-11-20T14:40:29;23.80;;;17.75;;
2458;SDS011;1241;50.920;6.936;2022-11-20T14:43:15;23.33;;;17.85;;
2458;SDS011;1241;50.920;6.936;2022-11-20T14:45:50;25.88;;;16.58;;
2458;SDS011;1241;50.920;6.936;2022-11-20T14:48:29;26.70;;;17.55;;
2458;SDS011;1241;50.920;6.936;2022-11-20T14:51:04;23.17;;;16.38;;
2458;SDS011;1241;50.920;6.936;2022-11-20T14:53:30;22.93;;;16.77;;
2458;SDS011;1241;50.920;6.936;2022-11-20T14:55:59;22.40;;;15.77;;
2458;SDS011;1241;50.920;6.936;2022-11-20T14:58:27;24.48;;;18.05;;
2458;SDS011;1241;50.920;6.936;2022-11-20T15:00:55;23.38;;;16.30;;
2458;SDS011;1241;50.920;6.936;2022-11-20T15:03:22;24.88;;;17.70;;
2458;SDS011;1241;50.920;6.936;2022-11-20T15:05:55;26.50;;;17.75;;
2458;SDS011;1241;50.920;6.936;2022-11-20T15:08:20;28.87;;;19.57;;
2458;SDS011;1241;50.920;6.936;2022-11-20T15:10:47;27.10;;;16.67;;
2458;SDS011;1241;50.920;6.936;2022-11-20T15:16:01;23.50;;;17.52;;
2458;SDS011;1241;50.920;6.936;2022-11-20T15:18:32;27.33;;;18.45;;
2458;SDS011;1241;50.920;6.936;2022-11-20T15:21:03;25.27;;;18.83;;
2458;SDS011;1241;50.920;6.936;2022-11-20T15:23:35;24.20;;;17.75;;
2458;SDS011;1241;50.920;6.936;2022-11-20T15:26:00;27.10;;;19.13;;
2458;SDS011;1241;50.920;6.936;2022-11-20T15:28:30;29.00;;;19.43;;
2458;SDS011;1241;50.920;6.936;2022-11-20T15:31:06;24.50;;;18.90;;
2458;SDS011;1241;50.920;6.936;2022-11-20T15:33:32;29.27;;;18.13;;
2458;SDS011;1241;50.920;6.936;2022-11-20T15:35:59;30.00;;;18.15;;
2458;SDS011;1241;50.920;6.936;2022-11-20T15:38:25;27.17;;;18.67;;
2458;SDS011;1241;50.920;6.936;2022-11-20T15:40:50;23.70;;;16.70;;
2458;SDS011;1241;50.920;6.936;2022-11-20T15:43:16;27.52;;;18.30;;
2458;SDS011;1241;50.920;6.936;2022-11-20T15:45:43;27.87;;;18.57;;
2458;SDS011;1241;50.920;6.936;2022-11-20T15:48:21;25.17;;;18.25;;
2458;SDS011;1241;50.920;6.936;2022-11-20T15:50:58;26.58;;;19.52;;
2458;SDS011;1241;50.920;6.936;2022-11-20T15:53:24;23.50;;;16.83;;
2458;SDS011;1241;50.920;6.936;2022-11-20T15:55:50;20.83;;;15.03;;
2458;SDS011;1241;50.920;6.936;2022-11-20T15:58:16;26.53;;;17.07;;
2458;SDS011;1241;50.920;6.936;2022-11-20T16:00:42;21.67;;;16.20;;
2458;SDS011;1241;50.920;6.936;2022-11-20T16:03:12;30.80;;;20.00;;
2458;SDS011;1241;50.920;6.936;2022-11-20T16:05:38;20.10;;;16.00;;
2458;SDS011;1241;50.920;6.936;2022-11-20T16:08:04;22.93;;;15.23;;
2458;SDS011;1241;50.920;6.936;2022-11-20T16:10:30;27.75;;;17.08;;
2458;SDS011;1241;50.920;6.936;2022-11-20T16:12:55;22.40;;;16.47;;
2458;SDS011;1241;50.920;6.936;2022-11-20T16:15:40;22.17;;;15.40;;
2458;SDS011;1241;50.920;6.936;2022-11-20T16:18:12;23.17;;;15.57;;
2458;SDS011;1241;50.920;6.936;2022-11-20T16:20:40;23.67;;;17.17;;
2458;SDS011;1241;50.920;6.936;2022-11-20T16:23:06;20.30;;;16.00;;
2458;SDS011;1241;50.920;6.936;2022-11-20T16:25:32;20.08;;;14.25;;
2458;SDS011;1241;50.920;6.936;2022-11-20T16:27:58;19.80;;;14.75;;
2458;SDS011;1241;50.920;6.936;2022-11-20T16:30:24;16.30;;;14.03;;